sensor_id;sensor_type;location;lat;lon;timestamp;temperature;humidity
516;DHT22;244;48.508;9.052;2023-04-06T00:00:27;3.40;2.10
516;DHT22;244;48.508;9.052;2023-04-06T00:02:54;3.40;2.00
516;DHT22;244;48.508;9.052;2023-04-06T00:05:21;3.30;2.40
516;DHT22;244;48.508;9.052;2023-04-06T00:07:48;3.30;2.50
516;DHT22;244;48.508;9.052;2023-04-06T00:10:15;3.30;2.40
516;DHT22;244;48.508;9.052;2023-04-06T00:12:43;3.30;3.10
516;DHT22;244;48.508;9.052;2023-04-06T00:15:11;3.20;2.40
516;DHT22;244;48.508;9.052;2023-04-06T00:17:38;3.20;2.40
516;DHT22;244;48.508;9.052;2023-04-06T00:20:06;3.20;2.70
516;DHT22;244;48.508;9.052;2023-04-06T00:22:33;3.10;2.80
516;DHT22;244;48.508;9.052;2023-04-06T00:25:01;3.10;2.90
516;DHT22;244;48.508;9.052;2023-04-06T00:27:27;3.00;2.90
516;DHT22;244;48.508;9.052;2023-04-06T00:29:55;3.00;2.90
516;DHT22;244;48.508;9.052;2023-04-06T00:32:23;3.00;3.10
516;DHT22;244;48.508;9.052;2023-04-06T00:34:50;2.90;3.10
516;DHT22;244;48.508;9.052;2023-04-06T00:37:17;2.90;3.30
516;DHT22;244;48.508;9.052;2023-04-06T00:39:44;2.90;3.40
516;DHT22;244;48.508;9.052;2023-04-06T00:42:12;2.90;3.50
516;DHT22;244;48.508;9.052;2023-04-06T00:44:40;2.80;3.60
516;DHT22;244;48.508;9.052;2023-04-06T00:47:07;2.80;3.60
516;DHT22;244;48.508;9.052;2023-04-06T00:49:35;2.80;3.30
516;DHT22;244;48.508;9.052;2023-04-06T00:52:02;2.80;3.40
516;DHT22;244;48.508;9.052;2023-04-06T00:54:29;2.70;3.30
516;DHT22;244;48.508;9.052;2023-04-06T00:56:57;2.70;3.30
516;DHT22;244;48.508;9.052;2023-04-06T00:59:24;2.70;3.30
516;DHT22;244;48.508;9.052;2023-04-06T01:01:51;2.60;3.30
516;DHT22;244;48.508;9.052;2023-04-06T01:04:18;2.60;3.20
516;DHT22;244;48.508;9.052;2023-04-06T01:06:46;2.50;3.20
516;DHT22;244;48.508;9.052;2023-04-06T01:09:13;2.50;3.30
516;DHT22;244;48.508;9.052;2023-04-06T01:11:39;2.50;3.70
516;DHT22;244;48.508;9.052;2023-04-06T01:14:07;2.40;3.70
516;DHT22;244;48.508;9.052;2023-04-06T01:16:34;2.40;4.40
516;DHT22;244;48.508;9.052;2023-04-06T01:19:01;2.40;3.90
516;DHT22;244;48.508;9.052;2023-04-06T01:21:28;2.30;4.00
516;DHT22;244;48.508;9.052;2023-04-06T01:23:56;2.30;4.10
516;DHT22;244;48.508;9.052;2023-04-06T01:26:23;2.30;4.20
516;DHT22;244;48.508;9.052;2023-04-06T01:28:50;2.30;4.40
516;DHT22;244;48.508;9.052;2023-04-06T01:31:17;2.30;4.40
516;DHT22;244;48.508;9.052;2023-04-06T01:33:44;2.30;4.30
516;DHT22;244;48.508;9.052;2023-04-06T01:36:11;2.30;4.30
516;DHT22;244;48.508;9.052;2023-04-06T01:38:38;2.30;4.20
516;DHT22;244;48.508;9.052;2023-04-06T01:41:06;2.30;4.20
516;DHT22;244;48.508;9.052;2023-04-06T01:43:33;2.20;4.30
516;DHT22;244;48.508;9.052;2023-04-06T01:46:00;2.20;5.00
516;DHT22;244;48.508;9.052;2023-04-06T01:48:27;2.20;4.60
516;DHT22;244;48.508;9.052;2023-04-06T01:50:54;2.20;4.70
516;DHT22;244;48.508;9.052;2023-04-06T01:53:21;2.20;4.80
516;DHT22;244;48.508;9.052;2023-04-06T01:55:48;2.20;5.00
516;DHT22;244;48.508;9.052;2023-04-06T01:58:16;2.20;5.10
516;DHT22;244;48.508;9.052;2023-04-06T02:00:43;2.10;5.10
516;DHT22;244;48.508;9.052;2023-04-06T02:03:10;2.10;5.10
516;DHT22;244;48.508;9.052;2023-04-06T02:05:36;2.10;5.10
516;DHT22;244;48.508;9.052;2023-04-06T02:08:04;2.10;5.10
516;DHT22;244;48.508;9.052;2023-04-06T02:10:32;2.00;5.20
516;DHT22;244;48.508;9.052;2023-04-06T02:12:59;2.00;5.20
516;DHT22;244;48.508;9.052;2023-04-06T02:15:27;2.00;5.20
516;DHT22;244;48.508;9.052;2023-04-06T02:17:54;2.00;5.20
516;DHT22;244;48.508;9.052;2023-04-06T02:20:21;1.90;5.10
516;DHT22;244;48.508;9.052;2023-04-06T02:22:47;1.90;5.30
516;DHT22;244;48.508;9.052;2023-04-06T02:25:15;1.90;5.70
516;DHT22;244;48.508;9.052;2023-04-06T02:27:42;1.90;5.80
516;DHT22;244;48.508;9.052;2023-04-06T02:30:10;1.90;5.80
516;DHT22;244;48.508;9.052;2023-04-06T02:32:38;1.80;5.80
516;DHT22;244;48.508;9.052;2023-04-06T02:35:06;1.80;6.60
516;DHT22;244;48.508;9.052;2023-04-06T02:37:32;1.80;6.00
516;DHT22;244;48.508;9.052;2023-04-06T02:39:59;1.80;6.10
516;DHT22;244;48.508;9.052;2023-04-06T02:42:26;1.80;6.30
516;DHT22;244;48.508;9.052;2023-04-06T02:44:53;1.80;6.00
516;DHT22;244;48.508;9.052;2023-04-06T02:47:20;1.70;6.00
516;DHT22;244;48.508;9.052;2023-04-06T02:49:48;1.70;6.00
516;DHT22;244;48.508;9.052;2023-04-06T02:52:15;1.70;6.60
516;DHT22;244;48.508;9.052;2023-04-06T02:54:43;1.60;6.00
516;DHT22;244;48.508;9.052;2023-04-06T02:57:10;1.60;6.30
516;DHT22;244;48.508;9.052;2023-04-06T02:59:37;1.60;6.50
516;DHT22;244;48.508;9.052;2023-04-06T03:02:03;1.60;6.50
516;DHT22;244;48.508;9.052;2023-04-06T03:04:30;1.50;6.50
516;DHT22;244;48.508;9.052;2023-04-06T03:06:58;1.50;6.50
516;DHT22;244;48.508;9.052;2023-04-06T03:09:25;1.50;6.60
516;DHT22;244;48.508;9.052;2023-04-06T03:11:52;1.50;6.70
516;DHT22;244;48.508;9.052;2023-04-06T03:14:19;1.50;6.90
516;DHT22;244;48.508;9.052;2023-04-06T03:16:47;1.50;6.90
516;DHT22;244;48.508;9.052;2023-04-06T03:19:14;1.50;6.90
516;DHT22;244;48.508;9.052;2023-04-06T03:21:41;1.50;7.10
516;DHT22;244;48.508;9.052;2023-04-06T03:24:09;1.50;7.00
516;DHT22;244;48.508;9.052;2023-04-06T03:26:36;1.50;7.10
516;DHT22;244;48.508;9.052;2023-04-06T03:29:03;1.50;7.10
516;DHT22;244;48.508;9.052;2023-04-06T03:31:30;1.40;7.20
516;DHT22;244;48.508;9.052;2023-04-06T03:33:56;1.40;7.00
516;DHT22;244;48.508;9.052;2023-04-06T03:36:24;1.40;6.90
516;DHT22;244;48.508;9.052;2023-04-06T03:38:52;1.40;6.80
516;DHT22;244;48.508;9.052;2023-04-06T03:41:20;1.40;6.90
516;DHT22;244;48.508;9.052;2023-04-06T03:43:47;1.40;6.90
516;DHT22;244;48.508;9.052;2023-04-06T03:46:15;1.30;6.90
516;DHT22;244;48.508;9.052;2023-04-06T03:48:42;1.30;7.00
516;DHT22;244;48.508;9.052;2023-04-06T03:51:09;1.30;7.10
516;DHT22;244;48.508;9.052;2023-04-06T03:53:36;1.30;7.20
516;DHT22;244;48.508;9.052;2023-04-06T03:56:03;1.30;7.30
516;DHT22;244;48.508;9.052;2023-04-06T03:58:32;1.20;7.30
516;DHT22;244;48.508;9.052;2023-04-06T04:00:59;1.20;7.50
516;DHT22;244;48.508;9.052;2023-04-06T04:03:25;1.20;7.60
516;DHT22;244;48.508;9.052;2023-04-06T04:05:53;1.10;7.60
516;DHT22;244;48.508;9.052;2023-04-06T04:08:20;1.10;7.70
516;DHT22;244;48.508;9.052;2023-04-06T04:10:47;1.10;7.60
516;DHT22;244;48.508;9.052;2023-04-06T04:13:14;1.10;7.60
516;DHT22;244;48.508;9.052;2023-04-06T04:15:42;1.10;7.40
516;DHT22;244;48.508;9.052;2023-04-06T04:18:09;1.10;7.40
516;DHT22;244;48.508;9.052;2023-04-06T04:20:36;1.00;7.30
516;DHT22;244;48.508;9.052;2023-04-06T04:23:02;1.00;7.30
516;DHT22;244;48.508;9.052;2023-04-06T04:25:29;1.00;7.40
516;DHT22;244;48.508;9.052;2023-04-06T04:27:56;1.00;7.30
516;DHT22;244;48.508;9.052;2023-04-06T04:30:23;1.00;7.40
516;DHT22;244;48.508;9.052;2023-04-06T04:32:51;1.00;7.50
516;DHT22;244;48.508;9.052;2023-04-06T04:35:18;1.00;7.50
516;DHT22;244;48.508;9.052;2023-04-06T04:37:45;1.00;7.50
516;DHT22;244;48.508;9.052;2023-04-06T04:40:12;0.90;7.50
516;DHT22;244;48.508;9.052;2023-04-06T04:42:39;0.90;7.50
516;DHT22;244;48.508;9.052;2023-04-06T04:45:06;0.90;7.60
516;DHT22;244;48.508;9.052;2023-04-06T04:47:33;0.90;7.60
516;DHT22;244;48.508;9.052;2023-04-06T04:50:02;0.90;7.70
516;DHT22;244;48.508;9.052;2023-04-06T04:52:29;0.90;7.70
516;DHT22;244;48.508;9.052;2023-04-06T04:54:55;0.90;7.70
516;DHT22;244;48.508;9.052;2023-04-06T04:57:22;0.90;7.80
516;DHT22;244;48.508;9.052;2023-04-06T04:59:49;0.90;7.80
516;DHT22;244;48.508;9.052;2023-04-06T05:02:16;1.00;7.90
516;DHT22;244;48.508;9.052;2023-04-06T05:04:43;1.00;8.00
516;DHT22;244;48.508;9.052;2023-04-06T05:07:11;1.00;8.00
516;DHT22;244;48.508;9.052;2023-04-06T05:09:38;1.00;8.00
516;DHT22;244;48.508;9.052;2023-04-06T05:12:06;1.00;8.00
516;DHT22;244;48.508;9.052;2023-04-06T05:14:32;1.00;8.00
516;DHT22;244;48.508;9.052;2023-04-06T05:16:59;1.10;8.00
516;DHT22;244;48.508;9.052;2023-04-06T05:19:26;1.10;8.00
516;DHT22;244;48.508;9.052;2023-04-06T05:21:53;1.10;8.00
516;DHT22;244;48.508;9.052;2023-04-06T05:24:21;1.20;8.10
516;DHT22;244;48.508;9.052;2023-04-06T05:26:48;1.20;8.00
516;DHT22;244;48.508;9.052;2023-04-06T05:29:16;1.20;7.90
516;DHT22;244;48.508;9.052;2023-04-06T05:31:43;1.30;8.00
516;DHT22;244;48.508;9.052;2023-04-06T05:34:10;1.30;8.00
516;DHT22;244;48.508;9.052;2023-04-06T05:36:38;1.30;8.00
516;DHT22;244;48.508;9.052;2023-04-06T05:39:05;1.40;8.10
516;DHT22;244;48.508;9.052;2023-04-06T05:41:34;1.50;8.10
516;DHT22;244;48.508;9.052;2023-04-06T05:44:01;1.50;8.00
516;DHT22;244;48.508;9.052;2023-04-06T05:46:27;1.60;8.00
516;DHT22;244;48.508;9.052;2023-04-06T05:48:54;1.70;8.10
516;DHT22;244;48.508;9.052;2023-04-06T05:51:21;1.70;8.00
516;DHT22;244;48.508;9.052;2023-04-06T05:53:48;1.80;8.00
516;DHT22;244;48.508;9.052;2023-04-06T05:56:15;1.90;8.50
516;DHT22;244;48.508;9.052;2023-04-06T05:58:43;1.90;7.80
516;DHT22;244;48.508;9.052;2023-04-06T06:01:10;2.00;7.80
516;DHT22;244;48.508;9.052;2023-04-06T06:03:37;2.00;7.80
516;DHT22;244;48.508;9.052;2023-04-06T06:06:04;2.10;7.80
516;DHT22;244;48.508;9.052;2023-04-06T06:08:31;2.20;7.80
516;DHT22;244;48.508;9.052;2023-04-06T06:10:58;2.20;7.80
516;DHT22;244;48.508;9.052;2023-04-06T06:13:25;2.30;7.70
516;DHT22;244;48.508;9.052;2023-04-06T06:15:54;2.40;7.70
516;DHT22;244;48.508;9.052;2023-04-06T06:18:20;2.50;7.70
516;DHT22;244;48.508;9.052;2023-04-06T06:20:47;2.60;7.70
516;DHT22;244;48.508;9.052;2023-04-06T06:23:14;2.70;7.60
516;DHT22;244;48.508;9.052;2023-04-06T06:25:41;2.70;7.50
516;DHT22;244;48.508;9.052;2023-04-06T06:28:08;2.80;7.50
516;DHT22;244;48.508;9.052;2023-04-06T06:30:35;2.90;7.50
516;DHT22;244;48.508;9.052;2023-04-06T06:33:03;2.90;7.40
516;DHT22;244;48.508;9.052;2023-04-06T06:35:30;3.00;7.40
516;DHT22;244;48.508;9.052;2023-04-06T06:37:57;3.10;7.20
516;DHT22;244;48.508;9.052;2023-04-06T06:40:24;3.10;7.10
516;DHT22;244;48.508;9.052;2023-04-06T06:42:51;3.10;7.00
516;DHT22;244;48.508;9.052;2023-04-06T06:45:18;3.10;7.00
516;DHT22;244;48.508;9.052;2023-04-06T06:47:45;3.10;7.00
516;DHT22;244;48.508;9.052;2023-04-06T06:50:14;3.20;7.00
516;DHT22;244;48.508;9.052;2023-04-06T06:52:41;3.20;7.00
516;DHT22;244;48.508;9.052;2023-04-06T06:55:09;3.30;7.00
516;DHT22;244;48.508;9.052;2023-04-06T06:57:36;3.30;7.00
516;DHT22;244;48.508;9.052;2023-04-06T07:00:04;3.30;7.00
516;DHT22;244;48.508;9.052;2023-04-06T07:02:34;3.40;7.00
516;DHT22;244;48.508;9.052;2023-04-06T07:05:02;3.50;7.10
516;DHT22;244;48.508;9.052;2023-04-06T07:07:32;3.60;7.20
516;DHT22;244;48.508;9.052;2023-04-06T07:09:59;3.70;7.00
516;DHT22;244;48.508;9.052;2023-04-06T07:12:26;3.80;6.90
516;DHT22;244;48.508;9.052;2023-04-06T07:14:53;3.90;6.90
516;DHT22;244;48.508;9.052;2023-04-06T07:17:20;4.00;6.80
516;DHT22;244;48.508;9.052;2023-04-06T07:19:47;4.20;6.70
516;DHT22;244;48.508;9.052;2023-04-06T07:22:13;4.30;6.70
516;DHT22;244;48.508;9.052;2023-04-06T07:24:42;4.40;6.50
516;DHT22;244;48.508;9.052;2023-04-06T07:27:12;4.50;6.40
516;DHT22;244;48.508;9.052;2023-04-06T07:29:42;4.60;6.40
516;DHT22;244;48.508;9.052;2023-04-06T07:32:08;4.70;6.30
516;DHT22;244;48.508;9.052;2023-04-06T07:34:35;4.80;6.30
516;DHT22;244;48.508;9.052;2023-04-06T07:37:02;4.80;6.10
516;DHT22;244;48.508;9.052;2023-04-06T07:39:29;4.90;6.00
516;DHT22;244;48.508;9.052;2023-04-06T07:41:57;5.10;6.10
516;DHT22;244;48.508;9.052;2023-04-06T07:44:24;5.10;6.50
516;DHT22;244;48.508;9.052;2023-04-06T07:46:51;5.20;5.80
516;DHT22;244;48.508;9.052;2023-04-06T07:49:18;5.30;5.70
516;DHT22;244;48.508;9.052;2023-04-06T07:51:46;5.40;5.70
516;DHT22;244;48.508;9.052;2023-04-06T07:54:13;5.50;5.70
516;DHT22;244;48.508;9.052;2023-04-06T07:56:40;5.60;5.60
516;DHT22;244;48.508;9.052;2023-04-06T07:59:08;5.70;5.50
516;DHT22;244;48.508;9.052;2023-04-06T08:01:36;5.70;5.40
516;DHT22;244;48.508;9.052;2023-04-06T08:04:03;5.90;5.50
516;DHT22;244;48.508;9.052;2023-04-06T08:06:30;6.00;5.40
516;DHT22;244;48.508;9.052;2023-04-06T08:08:57;6.00;5.20
516;DHT22;244;48.508;9.052;2023-04-06T08:11:24;6.10;5.20
516;DHT22;244;48.508;9.052;2023-04-06T08:13:52;6.30;5.10
516;DHT22;244;48.508;9.052;2023-04-06T08:16:20;6.40;5.00
516;DHT22;244;48.508;9.052;2023-04-06T08:18:47;6.50;4.80
516;DHT22;244;48.508;9.052;2023-04-06T08:21:14;6.60;4.60
516;DHT22;244;48.508;9.052;2023-04-06T08:23:41;6.80;4.70
516;DHT22;244;48.508;9.052;2023-04-06T08:26:08;6.90;4.70
516;DHT22;244;48.508;9.052;2023-04-06T08:28:35;7.00;4.50
516;DHT22;244;48.508;9.052;2023-04-06T08:31:04;7.20;4.20
516;DHT22;244;48.508;9.052;2023-04-06T08:33:33;7.30;4.00
516;DHT22;244;48.508;9.052;2023-04-06T08:36:08;7.40;3.80
516;DHT22;244;48.508;9.052;2023-04-06T08:38:35;7.50;3.70
516;DHT22;244;48.508;9.052;2023-04-06T08:41:07;7.50;3.50
516;DHT22;244;48.508;9.052;2023-04-06T08:43:38;7.60;3.30
516;DHT22;244;48.508;9.052;2023-04-06T08:46:08;7.70;3.20
516;DHT22;244;48.508;9.052;2023-04-06T08:48:38;7.80;3.10
516;DHT22;244;48.508;9.052;2023-04-06T08:51:05;7.90;2.90
516;DHT22;244;48.508;9.052;2023-04-06T08:53:32;8.00;2.80
516;DHT22;244;48.508;9.052;2023-04-06T08:55:59;8.10;2.70
516;DHT22;244;48.508;9.052;2023-04-06T08:58:28;8.20;2.40
516;DHT22;244;48.508;9.052;2023-04-06T09:00:57;8.30;2.10
516;DHT22;244;48.508;9.052;2023-04-06T09:03:26;8.40;2.00
516;DHT22;244;48.508;9.052;2023-04-06T09:05:56;8.60;2.00
516;DHT22;244;48.508;9.052;2023-04-06T09:08:23;8.70;1.90
516;DHT22;244;48.508;9.052;2023-04-06T09:10:50;8.80;1.80
516;DHT22;244;48.508;9.052;2023-04-06T09:13:17;8.90;1.70
516;DHT22;244;48.508;9.052;2023-04-06T09:15:44;9.10;1.50
516;DHT22;244;48.508;9.052;2023-04-06T09:18:11;9.20;1.60
516;DHT22;244;48.508;9.052;2023-04-06T09:20:38;9.30;1.40
516;DHT22;244;48.508;9.052;2023-04-06T09:23:06;9.50;1.20
516;DHT22;244;48.508;9.052;2023-04-06T09:25:33;9.60;1.00
516;DHT22;244;48.508;9.052;2023-04-06T09:28:00;9.60;1.00
516;DHT22;244;48.508;9.052;2023-04-06T09:30:28;9.70;1.00
516;DHT22;244;48.508;9.052;2023-04-06T09:32:55;9.80;1.00
516;DHT22;244;48.508;9.052;2023-04-06T09:35:23;9.90;1.00
516;DHT22;244;48.508;9.052;2023-04-06T09:37:52;10.00;1.00
516;DHT22;244;48.508;9.052;2023-04-06T09:40:21;10.10;1.00
516;DHT22;244;48.508;9.052;2023-04-06T09:42:48;10.20;1.00
516;DHT22;244;48.508;9.052;2023-04-06T09:45:17;10.30;1.00
516;DHT22;244;48.508;9.052;2023-04-06T09:47:45;10.40;1.00
516;DHT22;244;48.508;9.052;2023-04-06T09:50:13;10.50;1.00
516;DHT22;244;48.508;9.052;2023-04-06T09:52:42;10.50;1.00
516;DHT22;244;48.508;9.052;2023-04-06T09:55:11;10.50;1.00
516;DHT22;244;48.508;9.052;2023-04-06T09:57:45;10.60;1.00
516;DHT22;244;48.508;9.052;2023-04-06T10:00:14;10.70;1.00
516;DHT22;244;48.508;9.052;2023-04-06T10:02:50;10.70;1.00
516;DHT22;244;48.508;9.052;2023-04-06T10:05:22;10.80;1.00
516;DHT22;244;48.508;9.052;2023-04-06T10:07:51;10.90;1.00
516;DHT22;244;48.508;9.052;2023-04-06T10:10:19;11.00;1.00
516;DHT22;244;48.508;9.052;2023-04-06T10:12:47;11.10;1.00
516;DHT22;244;48.508;9.052;2023-04-06T10:15:15;11.10;1.00
516;DHT22;244;48.508;9.052;2023-04-06T10:17:42;11.20;1.00
516;DHT22;244;48.508;9.052;2023-04-06T10:20:13;11.20;1.00
516;DHT22;244;48.508;9.052;2023-04-06T10:22:44;11.30;1.00
516;DHT22;244;48.508;9.052;2023-04-06T10:25:26;11.40;1.00
516;DHT22;244;48.508;9.052;2023-04-06T10:28:00;11.40;1.00
516;DHT22;244;48.508;9.052;2023-04-06T10:30:28;11.50;1.00
516;DHT22;244;48.508;9.052;2023-04-06T10:32:55;11.60;1.00
516;DHT22;244;48.508;9.052;2023-04-06T10:35:22;11.60;1.00
516;DHT22;244;48.508;9.052;2023-04-06T10:37:59;11.70;1.00
516;DHT22;244;48.508;9.052;2023-04-06T10:40:27;11.90;1.00
516;DHT22;244;48.508;9.052;2023-04-06T10:42:55;11.90;1.00
516;DHT22;244;48.508;9.052;2023-04-06T10:45:25;12.00;1.00
516;DHT22;244;48.508;9.052;2023-04-06T10:47:53;12.10;1.00
516;DHT22;244;48.508;9.052;2023-04-06T10:50:21;12.20;1.00
516;DHT22;244;48.508;9.052;2023-04-06T10:52:58;12.20;1.00
516;DHT22;244;48.508;9.052;2023-04-06T10:55:26;12.30;1.00
516;DHT22;244;48.508;9.052;2023-04-06T10:57:53;12.40;1.00
516;DHT22;244;48.508;9.052;2023-04-06T11:00:20;12.50;1.00
516;DHT22;244;48.508;9.052;2023-04-06T11:02:49;12.60;1.00
516;DHT22;244;48.508;9.052;2023-04-06T11:05:15;12.70;1.00
516;DHT22;244;48.508;9.052;2023-04-06T11:07:44;12.70;1.00
516;DHT22;244;48.508;9.052;2023-04-06T11:10:11;12.80;1.00
516;DHT22;244;48.508;9.052;2023-04-06T11:12:38;12.90;1.00
516;DHT22;244;48.508;9.052;2023-04-06T11:15:05;13.00;1.00
516;DHT22;244;48.508;9.052;2023-04-06T11:17:34;13.10;1.00
516;DHT22;244;48.508;9.052;2023-04-06T11:20:05;13.20;1.00
516;DHT22;244;48.508;9.052;2023-04-06T11:22:36;13.40;1.00
516;DHT22;244;48.508;9.052;2023-04-06T11:25:06;13.50;1.00
516;DHT22;244;48.508;9.052;2023-04-06T11:27:34;13.60;1.00
516;DHT22;244;48.508;9.052;2023-04-06T11:30:02;13.70;1.00
516;DHT22;244;48.508;9.052;2023-04-06T11:32:29;13.90;1.00
516;DHT22;244;48.508;9.052;2023-04-06T11:34:58;14.00;1.00
516;DHT22;244;48.508;9.052;2023-04-06T11:37:27;14.10;1.00
516;DHT22;244;48.508;9.052;2023-04-06T11:39:55;14.20;1.00
516;DHT22;244;48.508;9.052;2023-04-06T11:42:23;14.30;1.00
516;DHT22;244;48.508;9.052;2023-04-06T11:44:51;14.40;1.00
516;DHT22;244;48.508;9.052;2023-04-06T11:47:18;14.50;1.00
516;DHT22;244;48.508;9.052;2023-04-06T11:49:46;14.60;1.00
516;DHT22;244;48.508;9.052;2023-04-06T11:52:16;14.80;1.00
516;DHT22;244;48.508;9.052;2023-04-06T11:54:46;14.90;1.00
516;DHT22;244;48.508;9.052;2023-04-06T11:57:13;15.00;1.00
516;DHT22;244;48.508;9.052;2023-04-06T11:59:40;15.00;1.00
516;DHT22;244;48.508;9.052;2023-04-06T12:02:07;15.10;1.00
516;DHT22;244;48.508;9.052;2023-04-06T12:04:33;15.00;1.00
516;DHT22;244;48.508;9.052;2023-04-06T12:07:01;15.10;1.00
516;DHT22;244;48.508;9.052;2023-04-06T12:09:28;15.10;1.00
516;DHT22;244;48.508;9.052;2023-04-06T12:11:56;15.20;1.00
516;DHT22;244;48.508;9.052;2023-04-06T12:14:23;15.20;1.00
516;DHT22;244;48.508;9.052;2023-04-06T12:16:50;15.30;1.00
516;DHT22;244;48.508;9.052;2023-04-06T12:19:17;15.40;1.00
516;DHT22;244;48.508;9.052;2023-04-06T12:21:44;15.40;1.00
516;DHT22;244;48.508;9.052;2023-04-06T12:24:11;15.40;1.00
516;DHT22;244;48.508;9.052;2023-04-06T12:26:38;15.40;1.00
516;DHT22;244;48.508;9.052;2023-04-06T12:29:08;15.50;1.00
516;DHT22;244;48.508;9.052;2023-04-06T12:31:35;15.50;1.00
516;DHT22;244;48.508;9.052;2023-04-06T12:34:04;15.60;1.00
516;DHT22;244;48.508;9.052;2023-04-06T12:36:31;15.60;1.00
516;DHT22;244;48.508;9.052;2023-04-06T12:38:58;15.70;1.00
516;DHT22;244;48.508;9.052;2023-04-06T12:41:25;15.80;1.00
516;DHT22;244;48.508;9.052;2023-04-06T12:43:52;15.90;1.00
516;DHT22;244;48.508;9.052;2023-04-06T12:46:21;16.00;1.00
516;DHT22;244;48.508;9.052;2023-04-06T12:48:48;16.10;1.00
516;DHT22;244;48.508;9.052;2023-04-06T12:51:15;16.30;1.00
516;DHT22;244;48.508;9.052;2023-04-06T12:53:42;16.40;1.00
516;DHT22;244;48.508;9.052;2023-04-06T12:56:13;16.60;1.00
516;DHT22;244;48.508;9.052;2023-04-06T12:58:41;16.70;1.00
516;DHT22;244;48.508;9.052;2023-04-06T13:01:08;16.80;1.00
516;DHT22;244;48.508;9.052;2023-04-06T13:03:37;16.90;1.00
516;DHT22;244;48.508;9.052;2023-04-06T13:06:04;17.00;1.00
516;DHT22;244;48.508;9.052;2023-04-06T13:08:31;17.10;1.00
516;DHT22;244;48.508;9.052;2023-04-06T13:10:58;17.20;1.00
516;DHT22;244;48.508;9.052;2023-04-06T13:13:26;17.30;1.00
516;DHT22;244;48.508;9.052;2023-04-06T13:15:55;17.60;1.00
516;DHT22;244;48.508;9.052;2023-04-06T13:18:22;17.80;1.00
516;DHT22;244;48.508;9.052;2023-04-06T13:20:50;18.10;1.00
516;DHT22;244;48.508;9.052;2023-04-06T13:23:17;18.40;1.00
516;DHT22;244;48.508;9.052;2023-04-06T13:25:44;18.70;1.00
516;DHT22;244;48.508;9.052;2023-04-06T13:28:11;18.90;1.00
516;DHT22;244;48.508;9.052;2023-04-06T13:30:38;19.10;1.00
516;DHT22;244;48.508;9.052;2023-04-06T13:33:05;19.30;1.00
516;DHT22;244;48.508;9.052;2023-04-06T13:35:32;19.50;1.00
516;DHT22;244;48.508;9.052;2023-04-06T13:38:04;19.60;1.00
516;DHT22;244;48.508;9.052;2023-04-06T13:40:31;19.60;1.00
516;DHT22;244;48.508;9.052;2023-04-06T13:42:58;19.70;1.00
516;DHT22;244;48.508;9.052;2023-04-06T13:45:25;19.70;1.00
516;DHT22;244;48.508;9.052;2023-04-06T13:47:52;19.70;1.00
516;DHT22;244;48.508;9.052;2023-04-06T13:50:18;19.60;1.00
516;DHT22;244;48.508;9.052;2023-04-06T13:52:45;19.50;1.00
516;DHT22;244;48.508;9.052;2023-04-06T13:55:14;19.40;1.00
516;DHT22;244;48.508;9.052;2023-04-06T13:57:41;19.40;1.00
516;DHT22;244;48.508;9.052;2023-04-06T14:00:09;19.40;1.00
516;DHT22;244;48.508;9.052;2023-04-06T14:02:37;19.40;1.00
516;DHT22;244;48.508;9.052;2023-04-06T14:05:04;19.40;1.00
516;DHT22;244;48.508;9.052;2023-04-06T14:07:34;19.50;1.00
516;DHT22;244;48.508;9.052;2023-04-06T14:10:01;19.30;1.00
516;DHT22;244;48.508;9.052;2023-04-06T14:12:30;19.20;1.00
516;DHT22;244;48.508;9.052;2023-04-06T14:14:57;19.20;1.00
516;DHT22;244;48.508;9.052;2023-04-06T14:17:24;19.20;1.00
516;DHT22;244;48.508;9.052;2023-04-06T14:19:51;19.40;1.00
516;DHT22;244;48.508;9.052;2023-04-06T14:22:18;19.40;1.00
516;DHT22;244;48.508;9.052;2023-04-06T14:24:45;19.50;1.00
516;DHT22;244;48.508;9.052;2023-04-06T14:27:12;19.60;1.00
516;DHT22;244;48.508;9.052;2023-04-06T14:29:40;19.70;1.00
516;DHT22;244;48.508;9.052;2023-04-06T14:32:07;19.80;1.00
516;DHT22;244;48.508;9.052;2023-04-06T14:34:37;19.80;1.00
516;DHT22;244;48.508;9.052;2023-04-06T14:37:03;19.80;1.00
516;DHT22;244;48.508;9.052;2023-04-06T14:39:30;19.70;1.00
516;DHT22;244;48.508;9.052;2023-04-06T14:41:57;19.60;1.00
516;DHT22;244;48.508;9.052;2023-04-06T14:44:24;19.50;1.00
516;DHT22;244;48.508;9.052;2023-04-06T14:46:52;19.60;1.00
516;DHT22;244;48.508;9.052;2023-04-06T14:49:19;19.80;1.00
516;DHT22;244;48.508;9.052;2023-04-06T14:51:46;19.90;1.00
516;DHT22;244;48.508;9.052;2023-04-06T14:54:13;20.00;1.00
516;DHT22;244;48.508;9.052;2023-04-06T14:56:40;20.20;1.00
516;DHT22;244;48.508;9.052;2023-04-06T14:59:08;20.30;1.00
516;DHT22;244;48.508;9.052;2023-04-06T15:01:35;20.40;1.00
516;DHT22;244;48.508;9.052;2023-04-06T15:04:04;20.30;1.00
516;DHT22;244;48.508;9.052;2023-04-06T15:06:31;20.30;1.00
516;DHT22;244;48.508;9.052;2023-04-06T15:08:58;20.30;1.00
516;DHT22;244;48.508;9.052;2023-04-06T15:11:25;20.30;1.00
516;DHT22;244;48.508;9.052;2023-04-06T15:13:52;20.20;1.00
516;DHT22;244;48.508;9.052;2023-04-06T15:16:19;20.10;1.00
516;DHT22;244;48.508;9.052;2023-04-06T15:18:46;20.00;1.00
516;DHT22;244;48.508;9.052;2023-04-06T15:21:14;19.70;1.00
516;DHT22;244;48.508;9.052;2023-04-06T15:23:41;19.50;1.00
516;DHT22;244;48.508;9.052;2023-04-06T15:26:08;19.10;1.00
516;DHT22;244;48.508;9.052;2023-04-06T15:28:35;18.80;1.00
516;DHT22;244;48.508;9.052;2023-04-06T15:31:02;18.60;1.00
516;DHT22;244;48.508;9.052;2023-04-06T15:33:31;18.40;1.00
516;DHT22;244;48.508;9.052;2023-04-06T15:35:58;18.30;1.00
516;DHT22;244;48.508;9.052;2023-04-06T15:38:26;18.10;1.00
516;DHT22;244;48.508;9.052;2023-04-06T15:40:54;17.90;1.00
516;DHT22;244;48.508;9.052;2023-04-06T15:43:21;17.80;1.00
516;DHT22;244;48.508;9.052;2023-04-06T15:45:48;17.70;1.00
516;DHT22;244;48.508;9.052;2023-04-06T15:48:15;17.60;1.00
516;DHT22;244;48.508;9.052;2023-04-06T15:50:42;17.50;1.00
516;DHT22;244;48.508;9.052;2023-04-06T15:53:08;17.40;1.00
516;DHT22;244;48.508;9.052;2023-04-06T15:55:37;17.40;1.00
516;DHT22;244;48.508;9.052;2023-04-06T15:58:03;17.40;1.00
516;DHT22;244;48.508;9.052;2023-04-06T16:00:32;17.50;1.00
516;DHT22;244;48.508;9.052;2023-04-06T16:03:00;17.50;1.00
516;DHT22;244;48.508;9.052;2023-04-06T16:05:28;17.50;1.00
516;DHT22;244;48.508;9.052;2023-04-06T16:07:58;17.40;1.00
516;DHT22;244;48.508;9.052;2023-04-06T16:10:25;17.40;1.00
516;DHT22;244;48.508;9.052;2023-04-06T16:12:53;17.40;1.00
516;DHT22;244;48.508;9.052;2023-04-06T16:15:20;17.30;1.00
516;DHT22;244;48.508;9.052;2023-04-06T16:17:47;17.20;1.00
516;DHT22;244;48.508;9.052;2023-04-06T16:20:14;17.20;1.00
516;DHT22;244;48.508;9.052;2023-04-06T16:22:41;17.10;1.00
516;DHT22;244;48.508;9.052;2023-04-06T16:25:09;17.00;1.00
516;DHT22;244;48.508;9.052;2023-04-06T16:27:36;16.80;1.00
516;DHT22;244;48.508;9.052;2023-04-06T16:30:06;16.60;1.00
516;DHT22;244;48.508;9.052;2023-04-06T16:32:33;16.50;1.00
516;DHT22;244;48.508;9.052;2023-04-06T16:35:00;16.30;1.00
516;DHT22;244;48.508;9.052;2023-04-06T16:37:27;16.10;1.00
516;DHT22;244;48.508;9.052;2023-04-06T16:39:56;16.00;1.00
516;DHT22;244;48.508;9.052;2023-04-06T16:42:22;15.80;1.00
516;DHT22;244;48.508;9.052;2023-04-06T16:44:50;15.60;1.00
516;DHT22;244;48.508;9.052;2023-04-06T16:47:18;15.50;1.00
516;DHT22;244;48.508;9.052;2023-04-06T16:49:45;15.40;1.00
516;DHT22;244;48.508;9.052;2023-04-06T16:52:12;15.40;1.00
516;DHT22;244;48.508;9.052;2023-04-06T16:54:39;15.30;1.00
516;DHT22;244;48.508;9.052;2023-04-06T16:57:06;15.10;1.00
516;DHT22;244;48.508;9.052;2023-04-06T16:59:34;15.10;1.00
516;DHT22;244;48.508;9.052;2023-04-06T17:02:01;15.00;1.00